METAR Data
IDs: Format: Raw Decoded Include TAF

Data at: 1028 UTC 18 Jan 2022

K04V 181015Z AUTO 28003KT 10SM CLR M04/M20 A3002 RMK AO2
K04V 180955Z AUTO 00000KT 10SM CLR M05/M20 A3001 RMK AO2
K04V 180935Z AUTO 33007KT 10SM CLR M05/M20 A3002 RMK AO2
K04V 180915Z AUTO 34006KT 10SM CLR M06/M22 A3002 RMK AO2
K04V 180855Z AUTO 33007KT 10SM CLR M03/M20 A3002 RMK AO2
K04V 180835Z AUTO 33003KT 10SM CLR M03/M20 A3002 RMK AO2
K04V 180815Z AUTO 00000KT 10SM CLR M05/M20 A3002 RMK AO2
K04V 180755Z AUTO 31009KT 10SM CLR M02/M20 A3001 RMK AO2
K04V 180735Z AUTO 31012KT 10SM CLR M02/M20 A3001 RMK AO2
K04V 180715Z AUTO 29012KT 10SM CLR M01/M20 A3001 RMK AO2
K04V 180655Z AUTO 29013KT 10SM CLR M01/M20 A3002 RMK AO2
K04V 180635Z AUTO 29012KT 10SM CLR M01/M20 A3002 RMK AO2
K04V 180615Z AUTO 28013KT 10SM CLR M01/M20 A3003 RMK AO2
K04V 180555Z AUTO 28011KT 10SM CLR M01/M20 A3003 RMK AO2
K04V 180535Z AUTO 28013KT 10SM CLR M01/M21 A3003 RMK AO2
K04V 180515Z AUTO 28011KT 10SM CLR M01/M21 A3003 RMK AO2
K04V 180455Z AUTO 28010KT 10SM CLR M02/M22 A3004 RMK AO2
K04V 180435Z AUTO 30006KT 10SM CLR 00/M22 A3004 RMK AO2
K04V 180415Z AUTO 29013KT 10SM CLR 00/M22 A3004 RMK AO2
K04V 180355Z AUTO 29011KT 10SM CLR 00/M22 A3005 RMK AO2
K04V 180335Z AUTO 30011KT 10SM CLR 01/M22 A3005 RMK AO2
K04V 180315Z AUTO 31009KT 10SM CLR M01/M22 A3005 RMK AO2
K04V 180255Z AUTO 33010KT 10SM CLR M01/M21 A3005 RMK AO2
K04V 180235Z AUTO 32008KT 10SM CLR 00/M21 A3005 RMK AO2
K04V 180215Z AUTO 32007KT 10SM CLR M01/M21 A3005 RMK AO2
K04V 180155Z AUTO 34006KT 10SM CLR 00/M21 A3005 RMK AO2
K04V 180135Z AUTO 34004KT 10SM CLR 00/M21 A3005 RMK AO2
K04V 180115Z AUTO 00000KT 10SM CLR 00/M21 A3005 RMK AO2
K04V 180055Z AUTO 00000KT 10SM CLR 00/M21 A3005 RMK AO2
K04V 180035Z AUTO 09006KT 10SM CLR 02/M21 A3004 RMK AO2
K04V 180015Z AUTO 10008KT 10SM CLR 03/M20 A3004 RMK AO2
K04V 172355Z AUTO 10007KT 10SM CLR 04/M20 A3004 RMK AO2
K04V 172335Z AUTO 11006KT 10SM CLR 06/M20 A3004 RMK AO2
K04V 172315Z AUTO 12006KT 10SM CLR 07/M20 A3003 RMK AO2
K04V 172255Z AUTO 14008KT 10SM CLR 07/M20 A3003 RMK AO2
K04V 172235Z AUTO 13006KT 10SM CLR 08/M20 A3005 RMK AO2
K04V 172215Z AUTO 14006KT 10SM CLR 08/M20 A3004 RMK AO2
K04V 172155Z AUTO 14004KT 10SM CLR 08/M20 A3005 RMK AO2
K04V 172135Z AUTO 12006KT 10SM CLR 08/M20 A3005 RMK AO2
K04V 172115Z AUTO 13007KT 10SM CLR 08/M20 A3005 RMK AO2
K04V 172055Z AUTO 12007KT 10SM CLR 07/M21 A3005 RMK AO2
K04V 172035Z AUTO 14008KT 10SM CLR 07/M20 A3006 RMK AO2
K04V 172015Z AUTO 13009KT 10SM CLR 07/M20 A3006 RMK AO2
K04V 171955Z AUTO 12007KT 10SM CLR 06/M20 A3009 RMK AO2
K04V 171935Z AUTO 10006KT 10SM CLR 06/M20 A3010 RMK AO2
K04V 171915Z AUTO 12005KT 10SM CLR 05/M20 A3010 RMK AO2
K04V 171855Z AUTO 12006KT 10SM CLR 03/M20 A3013 RMK AO2
K04V 171835Z AUTO 13006KT 10SM CLR 03/M20 A3014 RMK AO2
K04V 171815Z AUTO 12006KT 10SM CLR 03/M18 A3016 RMK AO2
K04V 171755Z AUTO 11007KT 10SM CLR 01/M20 A3017 RMK AO2
K04V 171735Z AUTO 12006KT 10SM CLR 01/M20 A3017 RMK AO2
K04V 171715Z AUTO 11006KT 10SM CLR 00/M20 A3019 RMK AO2
K04V 171655Z AUTO 12005KT 10SM CLR 00/M20 A3019 RMK AO2
K04V 171635Z AUTO 13005KT 10SM CLR M02/M20 A3019 RMK AO2
K04V 171615Z AUTO 13004KT 10SM CLR M03/M21 A3019 RMK AO2
K04V 171555Z AUTO 13004KT 10SM CLR M03/M21 A3019 RMK AO2
K04V 171535Z AUTO 07003KT 10SM CLR M05/M21 A3019 RMK AO2
K04V 171515Z AUTO 36003KT 10SM CLR M04/M21 A3017 RMK AO2
K04V 171455Z AUTO 00000KT 10SM CLR M06/M21 A3017 RMK AO2
K04V 171435Z AUTO 30010KT 10SM CLR M07/M21 A3017 RMK AO2
K04V 171415Z AUTO 30010KT 10SM CLR M07/M21 A3017 RMK AO2
K04V 171355Z AUTO 31012KT 10SM CLR M06/M21 A3017 RMK AO2
K04V 171335Z AUTO 30012KT 10SM CLR M06/M21 A3016 RMK AO2
K04V 171315Z AUTO 31009KT 10SM CLR M07/M21 A3016 RMK AO2
K04V 171255Z AUTO 31010KT 10SM CLR M07/M21 A3016 RMK AO2
K04V 171235Z AUTO 31011KT 10SM CLR M06/M21 A3016 RMK AO2
K04V 171215Z AUTO 30011KT 10SM CLR M05/M22 A3016 RMK AO2
K04V 171155Z AUTO 30014KT 10SM CLR M04/M22 A3016 RMK AO2
K04V 171135Z AUTO 29015KT 10SM CLR M05/M22 A3016 RMK AO2
K04V 171115Z AUTO 29013KT 10SM CLR M06/M22 A3017 RMK AO2
K04V 171055Z AUTO 29005KT 10SM CLR M07/M22 A3017 RMK AO2
K04V 171035Z AUTO 33008KT 10SM CLR M07/M22 A3017 RMK AO2
K04V 171015Z AUTO 33008KT 10SM CLR M07/M22 A3018 RMK AO2
K04V 170955Z AUTO 33007KT 10SM CLR M07/M22 A3019 RMK AO2
K04V 170935Z AUTO 32007KT 10SM CLR M06/M22 A3019 RMK AO2
K04V 170915Z AUTO 29005KT 10SM CLR M05/M22 A3019 RMK AO2
K04V 170855Z AUTO 28006KT 10SM CLR M03/M23 A3020 RMK AO2
K04V 170835Z AUTO 08004KT 10SM CLR M05/M23 A3020 RMK AO2
K04V 170815Z AUTO 29005KT 10SM CLR M05/M22 A3020 RMK AO2
K04V 170755Z AUTO 34005KT 10SM CLR M06/M22 A3021 RMK AO2
K04V 170735Z AUTO 00000KT 10SM CLR M06/M22 A3021 RMK AO2
K04V 170715Z AUTO 30010KT 10SM CLR M05/M22 A3021 RMK AO2
K04V 170655Z AUTO 31009KT 10SM CLR M06/M22 A3021 RMK AO2
K04V 170635Z AUTO 31009KT 10SM CLR M05/M22 A3021 RMK AO2
K04V 170615Z AUTO 30011KT 10SM CLR M04/M22 A3021 RMK AO2
K04V 170555Z AUTO 31010KT 10SM CLR M03/M22 A3022 RMK AO2
K04V 170535Z AUTO 29012KT 10SM CLR M03/M22 A3022 RMK AO2
K04V 170515Z AUTO 28011KT 10SM CLR M03/M22 A3022 RMK AO2
K04V 170455Z AUTO 28007KT 10SM CLR M03/M22 A3022 RMK AO2
K04V 170435Z AUTO 29006KT 10SM CLR M02/M22 A3022 RMK AO2
K04V 170415Z AUTO 30003KT 10SM CLR 00/M22 A3022 RMK AO2
K04V 170355Z AUTO 30006KT 10SM CLR 00/M22 A3021 RMK AO2
K04V 170335Z AUTO 29009KT 10SM CLR M01/M21 A3021 RMK AO2
K04V 170315Z AUTO 27005KT 10SM CLR M01/M21 A3021 RMK AO2
K04V 170255Z AUTO 30009KT 10SM CLR 00/M21 A3021 RMK AO2
K04V 170235Z AUTO 28010KT 10SM CLR 00/M21 A3021 RMK AO2
K04V 170215Z AUTO 30012KT 10SM CLR 00/M21 A3021 RMK AO2
K04V 170155Z AUTO 30010KT 10SM CLR 01/M21 A3021 RMK AO2
K04V 170135Z AUTO 30012KT 10SM CLR 01/M22 A3021 RMK AO2
K04V 170115Z AUTO 30011KT 10SM CLR 03/M22 A3019 RMK AO2
K04V 170055Z AUTO 31010KT 10SM CLR 03/M22 A3019 RMK AO2
K04V 170035Z AUTO 32003KT 10SM CLR 01/M22 A3019 RMK AO2
K04V 170015Z AUTO 00000KT 10SM CLR 02/M22 A3018 RMK AO2
K04V 162355Z AUTO 32009KT 10SM CLR 06/M23 A3018 RMK AO2
K04V 162335Z AUTO 32011G16KT 10SM CLR 07/M23 A3016 RMK AO2
K04V 162315Z AUTO 33010KT 10SM CLR 08/M22 A3017 RMK AO2
K04V 162255Z AUTO 00000KT 10SM CLR 08/M18 A3017 RMK AO2
K04V 162235Z AUTO 12005KT 10SM CLR 08/M18 A3017 RMK AO2